Time;durP1;ratioP1;P1;durP2;ratioP2;P2;SDS_P1;SDS_P2;PMS_P1;PMS_P2;Temp;Humidity;BMP_temperature;BMP_pressure;BME280_temperature;BME280_humidity;BME280_pressure;Samples;Min_cycle;Max_cycle;Signal;HPM_P1;HPM_P2
2022/07/24 00:00:03;;;;;;;1.70;1.58;;;20.30;99.90;;;;;;6283873;22;20046;-92
2022/07/24 00:02:29;;;;;;;8.60;1.92;;;20.30;99.90;;;;;;6281839;22;20000;-91
2022/07/24 00:04:56;;;;;;;3.80;1.50;;;20.20;99.90;;;;;;6255099;22;20007;-91
2022/07/24 00:07:22;;;;;;;2.65;1.50;;;20.20;99.90;;;;;;6253801;22;20007;-91
2022/07/24 00:09:48;;;;;;;5.88;1.50;;;20.20;99.90;;;;;;6284192;22;20003;-93
2022/07/24 00:12:13;;;;;;;3.67;1.83;;;20.10;99.90;;;;;;6280308;22;19999;-89
2022/07/24 00:14:39;;;;;;;1.92;1.52;;;20.10;99.90;;;;;;6281861;22;20000;-92
2022/07/24 00:17:05;;;;;;;2.95;1.55;;;20.00;99.90;;;;;;6285136;22;20023;-86
2022/07/24 00:19:31;;;;;;;2.90;1.30;;;20.00;99.90;;;;;;6284833;22;20375;-91
2022/07/24 00:21:59;;;;;;;2.50;1.58;;;19.90;99.90;;;;;;6251037;23;20042;-92
2022/07/24 00:24:25;;;;;;;2.10;1.50;;;19.90;99.90;;;;;;6248576;23;20526;-91
2022/07/24 00:26:52;;;;;;;2.53;1.42;;;19.90;99.90;;;;;;6248435;22;20031;-93
2022/07/24 00:29:18;;;;;;;1.95;1.52;;;19.90;99.90;;;;;;6251535;23;20048;-92
2022/07/24 00:31:46;;;;;;;2.95;1.60;;;19.90;99.90;;;;;;6246440;23;20011;-91
2022/07/24 00:34:11;;;;;;;2.10;1.73;;;19.90;99.90;;;;;;6275984;22;20004;-93
2022/07/24 00:36:41;;;;;;;2.97;1.50;;;19.80;99.90;;;;;;6251758;22;20082;-90
2022/07/24 00:39:07;;;;;;;2.05;1.50;;;19.80;99.90;;;;;;6253322;23;19997;-87
2022/07/24 00:41:33;;;;;;;3.80;1.60;;;19.80;99.90;;;;;;6257129;23;20008;-94
2022/07/24 00:44:19;;;;;;;2.85;1.40;;;19.80;99.90;;;;;;6252933;23;20054;-93
2022/07/24 00:46:46;;;;;;;2.47;1.52;;;19.70;99.90;;;;;;6253698;23;20004;-93
2022/07/24 00:49:16;;;;;;;4.45;1.50;;;19.70;99.90;;;;;;6254573;22;20007;-91
2022/07/24 00:51:43;;;;;;;4.07;1.50;;;19.70;99.90;;;;;;6228655;23;20433;-94
2022/07/24 00:54:12;;;;;;;2.00;1.60;;;19.60;99.90;;;;;;6253233;23;20008;-93
2022/07/24 00:56:40;;;;;;;4.32;1.50;;;19.50;99.90;;;;;;6255940;22;20000;-85
2022/07/24 00:59:07;;;;;;;2.00;1.50;;;19.50;99.90;;;;;;6254687;23;20083;-94
2022/07/24 01:01:33;;;;;;;2.33;1.67;;;19.50;99.90;;;;;;6255133;23;20008;-88
2022/07/24 01:04:00;;;;;;;2.35;1.50;;;19.40;99.90;;;;;;6279934;22;20027;-94
2022/07/24 01:06:26;;;;;;;4.10;1.50;;;19.50;99.90;;;;;;6226505;23;20008;-92
2022/07/24 01:08:53;;;;;;;2.10;1.50;;;19.40;99.90;;;;;;6253455;23;20341;-88
2022/07/24 01:11:21;;;;;;;1.98;1.60;;;19.30;99.90;;;;;;6256046;22;20000;-94
2022/07/24 01:13:49;;;;;;;1.50;1.40;;;19.30;99.90;;;;;;6253409;22;20083;-87
2022/07/24 01:16:16;;;;;;;2.70;1.50;;;19.20;99.90;;;;;;6252570;22;20401;-91
2022/07/24 01:18:42;;;;;;;2.97;1.80;;;19.20;99.90;;;;;;6247607;23;20138;-94
2022/07/24 01:21:08;;;;;;;6.57;1.70;;;19.20;99.90;;;;;;6250079;22;20012;-93
2022/07/24 01:23:34;;;;;;;2.33;1.52;;;19.10;99.90;;;;;;6279454;22;20011;-87
2022/07/24 01:26:02;;;;;;;2.05;1.50;;;19.10;99.90;;;;;;6278764;22;19999;-88
2022/07/24 01:28:28;;;;;;;3.28;1.35;;;19.10;99.90;;;;;;6254521;22;20003;-94
2022/07/24 01:30:54;;;;;;;2.80;1.45;;;19.00;99.90;;;;;;6253099;22;20007;-91
2022/07/24 01:33:22;;;;;;;2.47;1.60;;;19.10;99.90;;;;;;6254446;22;20062;-89
2022/07/24 01:35:53;;;;;;;2.75;1.70;;;18.90;99.90;;;;;;6287282;22;20003;-88
2022/07/24 01:38:19;;;;;;;1.90;1.40;;;18.90;99.90;;;;;;6261251;22;20000;-94
2022/07/24 01:40:45;;;;;;;2.33;1.50;;;18.90;99.90;;;;;;6289803;22;20007;-92
2022/07/24 01:43:11;;;;;;;4.13;1.50;;;19.20;99.90;;;;;;6288881;22;20007;-87
2022/07/24 01:45:37;;;;;;;2.80;1.50;;;18.70;99.90;;;;;;6261486;22;20077;-87
2022/07/24 01:48:06;;;;;;;2.53;1.40;;;18.70;99.90;;;;;;6290251;22;20435;-88
2022/07/24 01:50:32;;;;;;;6.20;1.50;;;18.70;99.90;;;;;;6285445;22;20004;-87
2022/07/24 01:53:01;;;;;;;1.58;1.48;;;18.70;99.90;;;;;;6279341;22;20030;-88
2022/07/24 01:55:27;;;;;;;1.98;1.33;;;18.70;99.90;;;;;;6279803;22;20000;-90
2022/07/24 01:57:55;;;;;;;3.95;1.73;;;18.70;99.90;;;;;;6278025;22;20004;-89
2022/07/24 02:00:21;;;;;;;1.73;1.50;;;18.60;99.90;;;;;;6279198;22;20490;-87
2022/07/24 02:02:47;;;;;;;1.95;1.40;;;18.60;99.90;;;;;;6286520;22;19996;-88
2022/07/24 02:05:15;;;;;;;1.73;1.45;;;18.60;99.90;;;;;;6286219;22;20007;-87
2022/07/24 02:07:42;;;;;;;1.98;1.50;;;18.50;99.90;;;;;;6286912;22;20023;-87
2022/07/24 02:10:10;;;;;;;3.30;1.70;;;18.40;99.90;;;;;;6263193;22;19999;-91
2022/07/24 02:12:36;;;;;;;1.65;1.52;;;18.50;99.90;;;;;;6289580;22;19999;-90
2022/07/24 02:15:02;;;;;;;2.20;1.60;;;18.40;99.90;;;;;;6264355;22;20014;-90
2022/07/24 02:17:28;;;;;;;2.05;1.50;;;18.40;99.90;;;;;;6286616;22;20004;-93
2022/07/24 02:19:53;;;;;;;2.05;1.30;;;18.30;99.90;;;;;;6291439;22;20022;-87
2022/07/24 02:22:19;;;;;;;1.50;1.40;;;18.30;99.90;;;;;;6256180;23;20023;-88
2022/07/24 02:24:45;;;;;;;1.77;1.40;;;18.20;99.90;;;;;;6261034;22;20052;-92
2022/07/24 02:27:18;;;;;;;3.75;1.70;;;18.10;99.90;;;;;;6257584;22;20028;-91
2022/07/24 02:29:45;;;;;;;1.50;1.40;;;18.10;99.90;;;;;;6263919;23;19996;-86
2022/07/24 02:32:11;;;;;;;2.05;1.50;;;18.00;99.90;;;;;;6264022;23;20100;-91
2022/07/24 02:34:36;;;;;;;1.50;1.40;;;18.00;99.90;;;;;;6259731;22;20060;-87
2022/07/24 02:37:03;;;;;;;1.63;1.50;;;17.90;99.90;;;;;;6262112;22;20354;-87
2022/07/24 02:39:32;;;;;;;1.67;1.50;;;17.90;99.90;;;;;;6263377;23;20083;-89
2022/07/24 02:41:58;;;;;;;1.50;1.40;;;17.90;99.90;;;;;;6260147;22;20043;-89
2022/07/24 02:44:24;;;;;;;1.98;1.50;;;17.80;99.90;;;;;;6251131;22;20004;-92
2022/07/24 02:46:49;;;;;;;1.70;1.20;;;17.80;99.90;;;;;;6249047;23;20007;-93
2022/07/24 02:49:17;;;;;;;2.35;1.40;;;17.80;99.90;;;;;;6248228;22;20050;-89
2022/07/24 02:51:43;;;;;;;2.47;1.33;;;19.20;99.90;;;;;;6250054;22;20040;-87
2022/07/24 02:54:28;;;;;;;2.67;1.40;;;17.90;99.90;;;;;;6260232;23;19996;-87
2022/07/24 02:56:58;;;;;;;2.15;1.50;;;17.90;99.90;;;;;;6255421;22;20008;-87
2022/07/24 02:59:23;;;;;;;1.38;1.27;;;17.80;99.90;;;;;;6251625;23;20003;-89
2022/07/24 03:01:51;;;;;;;6.35;1.40;;;17.90;99.90;;;;;;6254072;23;20008;-94
2022/07/24 03:04:17;;;;;;;3.03;1.60;;;18.30;99.90;;;;;;6254658;22;20000;-87
2022/07/24 03:06:46;;;;;;;2.20;1.50;;;17.60;99.90;;;;;;6256856;22;20268;-88
2022/07/24 03:09:14;;;;;;;3.55;1.50;;;17.70;99.90;;;;;;6255162;23;20008;-90
2022/07/24 03:11:40;;;;;;;2.00;1.30;;;17.60;99.90;;;;;;6251724;23;20004;-90
2022/07/24 03:14:05;;;;;;;3.05;1.50;;;17.80;99.90;;;;;;6249823;23;20079;-93
2022/07/24 03:16:32;;;;;;;2.78;1.50;;;17.60;99.90;;;;;;6250279;23;20015;-91
2022/07/24 03:18:59;;;;;;;2.50;1.45;;;17.60;99.90;;;;;;6249807;23;20000;-86
2022/07/24 03:21:25;;;;;;;2.05;1.45;;;17.60;99.90;;;;;;6257164;22;20016;-93
2022/07/24 03:23:51;;;;;;;3.80;1.50;;;17.60;99.90;;;;;;6252358;22;20344;-89
2022/07/24 03:26:17;;;;;;;1.65;1.40;;;17.50;99.90;;;;;;6250741;22;20008;-87
2022/07/24 03:28:42;;;;;;;1.58;1.30;;;17.40;99.90;;;;;;6250999;22;20000;-87
2022/07/24 03:31:08;;;;;;;2.55;1.52;;;17.40;99.90;;;;;;6278193;22;20431;-94
2022/07/24 03:33:34;;;;;;;2.50;1.70;;;17.60;99.90;;;;;;6278711;22;20000;-87
2022/07/24 03:36:03;;;;;;;1.55;1.45;;;17.70;99.90;;;;;;6254600;22;20000;-93
2022/07/24 03:38:29;;;;;;;4.63;1.55;;;17.40;99.90;;;;;;6258793;22;20004;-95
2022/07/24 03:40:55;;;;;;;1.50;1.40;;;17.40;99.90;;;;;;6289000;22;20011;-89
2022/07/24 03:43:21;;;;;;;2.90;1.40;;;17.80;99.90;;;;;;6285329;22;20007;-92
2022/07/24 03:45:47;;;;;;;1.67;1.58;;;17.30;99.90;;;;;;6258342;22;20007;-85
2022/07/24 03:48:12;;;;;;;1.50;1.40;;;17.20;99.90;;;;;;6285426;22;20055;-90
2022/07/24 03:50:38;;;;;;;1.65;1.55;;;17.20;99.90;;;;;;6283503;22;20087;-90
2022/07/24 03:53:04;;;;;;;1.50;1.40;;;17.30;99.90;;;;;;6255803;22;20058;-87
2022/07/24 03:55:30;;;;;;;2.85;1.60;;;17.30;99.90;;;;;;6281999;22;19999;-91
2022/07/24 03:57:55;;;;;;;1.67;1.58;;;17.30;99.90;;;;;;6282130;22;19995;-89
2022/07/24 04:00:21;;;;;;;2.08;1.60;;;17.30;99.90;;;;;;6285101;22;20051;-85
2022/07/24 04:02:50;;;;;;;1.98;1.60;;;17.40;99.90;;;;;;6256352;22;20006;-85
2022/07/24 04:05:16;;;;;;;2.35;1.63;;;17.30;99.90;;;;;;6258700;22;20008;-93
2022/07/24 04:07:43;;;;;;;1.67;1.58;;;17.30;99.90;;;;;;6261596;22;20026;-88
2022/07/24 04:10:09;;;;;;;1.70;1.60;;;17.40;99.90;;;;;;6288519;22;19999;-92
2022/07/24 04:12:46;;;;;;;1.70;1.58;;;17.60;99.90;;;;;;6286914;22;20003;-92
2022/07/24 04:15:15;;;;;;;4.20;1.85;;;17.30;99.90;;;;;;6265494;22;20348;-86
2022/07/24 04:17:43;;;;;;;2.97;1.92;;;17.30;99.90;;;;;;6288380;22;19996;-85
2022/07/24 04:20:15;;;;;;;3.08;1.92;;;17.40;99.90;;;;;;6292831;22;20003;-86
2022/07/24 04:22:41;;;;;;;2.30;2.10;;;17.30;99.90;;;;;;6292204;22;20027;-84
2022/07/24 04:25:10;;;;;;;2.55;2.08;;;17.30;99.90;;;;;;6290926;22;19999;-89
2022/07/24 04:27:35;;;;;;;2.17;1.95;;;17.50;99.90;;;;;;6290113;22;20003;-87
2022/07/24 04:30:11;;;;;;;2.40;2.20;;;17.30;99.90;;;;;;6285335;22;20000;-91
2022/07/24 04:32:37;;;;;;;4.50;2.40;;;17.30;99.90;;;;;;6281798;22;20032;-88
2022/07/24 04:35:04;;;;;;;2.17;1.98;;;17.30;99.90;;;;;;6256034;22;20073;-87
2022/07/24 04:37:31;;;;;;;2.42;2.15;;;17.30;99.90;;;;;;6283120;22;20007;-91
2022/07/24 04:40:00;;;;;;;2.35;2.10;;;17.20;99.90;;;;;;6286216;22;19999;-91
2022/07/24 04:42:26;;;;;;;2.63;2.10;;;17.20;99.90;;;;;;6289723;22;20004;-88
2022/07/24 04:44:51;;;;;;;3.08;2.33;;;17.20;99.90;;;;;;6274733;22;20010;-88
2022/07/24 04:47:17;;;;;;;2.40;2.20;;;17.20;99.90;;;;;;6275017;22;20004;-88
2022/07/24 04:49:43;;;;;;;2.83;2.10;;;17.20;99.90;;;;;;6274494;22;20006;-86
2022/07/24 04:52:09;;;;;;;5.72;2.60;;;17.20;99.90;;;;;;6280467;22;19995;-91
2022/07/24 04:54:34;;;;;;;4.90;2.30;;;17.20;99.90;;;;;;6229143;22;20038;-89
2022/07/24 04:57:00;;;;;;;2.50;2.20;;;17.20;99.90;;;;;;6273048;22;20004;-87
2022/07/24 04:59:26;;;;;;;2.38;2.17;;;17.20;99.90;;;;;;6251800;22;20015;-87
2022/07/24 05:01:52;;;;;;;2.55;2.35;;;17.20;99.90;;;;;;6273914;22;20042;-90
2022/07/24 05:04:17;;;;;;;5.13;2.35;;;17.20;99.90;;;;;;6271426;22;20082;-86
2022/07/24 05:06:46;;;;;;;3.70;2.30;;;17.20;99.90;;;;;;6272850;22;20432;-87
2022/07/24 05:09:11;;;;;;;;;;;17.20;99.90;;;;;;6245570;22;20007;-85
2022/07/24 05:11:37;;;;;;;5.00;2.20;;;17.20;99.90;;;;;;6274889;22;19922;-88
2022/07/24 05:14:05;;;;;;;2.83;2.53;;;17.20;99.90;;;;;;6267367;22;20010;-86
2022/07/24 05:16:32;;;;;;;3.45;2.35;;;17.30;99.90;;;;;;6270946;22;20543;-86
2022/07/24 05:18:58;;;;;;;3.22;2.20;;;17.20;99.90;;;;;;6272788;22;20000;-86
2022/07/24 05:21:24;;;;;;;2.63;2.28;;;17.30;99.90;;;;;;6271530;22;20015;-86
2022/07/24 05:23:49;;;;;;;3.28;2.55;;;17.30;99.90;;;;;;6273831;22;20003;-88
2022/07/24 05:26:15;;;;;;;4.35;2.70;;;17.30;99.90;;;;;;6275081;22;20059;-87
2022/07/24 05:28:41;;;;;;;2.95;2.28;;;17.30;99.90;;;;;;6250925;22;20456;-89
2022/07/24 05:31:08;;;;;;;2.58;2.38;;;17.40;99.90;;;;;;6253724;22;20000;-87
2022/07/24 05:33:34;;;;;;;4.40;2.72;;;17.40;99.90;;;;;;6278743;22;20021;-86
2022/07/24 05:36:00;;;;;;;3.30;2.30;;;17.40;99.90;;;;;;6278008;22;20092;-91
2022/07/24 05:38:26;;;;;;;4.20;2.72;;;17.40;99.90;;;;;;6251993;22;20421;-88
2022/07/24 05:40:52;;;;;;;3.60;2.30;;;17.40;99.90;;;;;;6277398;22;20011;-90
2022/07/24 05:43:18;;;;;;;4.78;2.50;;;17.40;99.90;;;;;;6250437;22;20019;-91
2022/07/24 05:45:45;;;;;;;3.20;2.70;;;17.50;99.90;;;;;;6277043;22;20030;-91
2022/07/24 05:48:10;;;;;;;6.00;2.80;;;17.60;99.90;;;;;;6251942;22;20007;-93
2022/07/24 05:50:36;;;;;;;2.97;2.70;;;18.70;99.90;;;;;;6276083;22;20025;-92
2022/07/24 05:53:02;;;;;;;5.57;2.50;;;17.60;99.90;;;;;;6276587;22;20018;-92
2022/07/24 05:55:28;;;;;;;8.27;3.00;;;17.40;99.90;;;;;;6276528;22;20000;-90
2022/07/24 05:57:55;;;;;;;3.65;2.40;;;17.60;99.90;;;;;;6275740;22;20003;-86
2022/07/24 06:00:22;;;;;;;3.25;2.65;;;17.60;99.90;;;;;;6276603;22;20072;-88
2022/07/24 06:02:48;;;;;;;2.78;2.50;;;17.80;99.90;;;;;;6275781;22;20002;-89
2022/07/24 06:05:15;;;;;;;5.10;2.70;;;18.10;99.90;;;;;;6249321;22;20041;-89
2022/07/24 06:07:41;;;;;;;3.35;2.70;;;17.80;99.90;;;;;;6248994;22;20035;-89
2022/07/24 06:10:08;;;;;;;3.35;3.00;;;18.00;99.90;;;;;;6250147;22;20000;-90
2022/07/24 06:12:33;;;;;;;4.53;2.70;;;18.00;99.90;;;;;;6250706;22;20003;-91
2022/07/24 06:14:59;;;;;;;2.97;2.25;;;18.00;99.90;;;;;;6278819;22;20000;-91
2022/07/24 06:17:25;;;;;;;2.83;2.60;;;18.00;99.90;;;;;;6277755;22;20000;-87
2022/07/24 06:19:51;;;;;;;4.13;2.92;;;17.90;99.90;;;;;;6278541;22;20440;-89
2022/07/24 06:22:16;;;;;;;5.28;2.90;;;18.50;99.90;;;;;;6246226;23;20345;-90
2022/07/24 06:24:42;;;;;;;6.38;2.85;;;18.00;99.90;;;;;;6247911;23;20354;-90
2022/07/24 06:27:08;;;;;;;3.88;2.70;;;18.10;99.90;;;;;;6272033;22;20001;-90
2022/07/24 06:29:33;;;;;;;3.65;2.88;;;18.20;99.90;;;;;;6246759;23;20031;-90
2022/07/24 06:32:00;;;;;;;3.78;3.00;;;18.20;99.90;;;;;;6248133;23;20032;-88
2022/07/24 06:34:25;;;;;;;3.97;2.53;;;18.20;99.90;;;;;;6246597;23;20015;-86
2022/07/24 06:36:51;;;;;;;4.03;2.90;;;18.30;99.90;;;;;;6248083;23;20334;-90
2022/07/24 06:39:18;;;;;;;4.18;2.90;;;18.60;99.90;;;;;;6246161;23;20008;-88
2022/07/24 06:41:43;;;;;;;4.95;2.65;;;18.40;99.90;;;;;;6244963;23;20109;-90
2022/07/24 06:44:09;;;;;;;2.85;2.58;;;18.40;99.90;;;;;;6270702;22;20008;-88
2022/07/24 06:46:35;;;;;;;3.00;2.55;;;18.50;99.90;;;;;;6248238;22;20000;-89
2022/07/24 06:49:01;;;;;;;2.45;2.25;;;18.50;99.90;;;;;;6248851;23;20003;-89
2022/07/24 06:51:26;;;;;;;2.60;2.03;;;18.60;99.90;;;;;;6248062;22;20425;-86
2022/07/24 06:53:52;;;;;;;5.15;2.80;;;18.60;99.90;;;;;;6249976;23;20052;-89
2022/07/24 06:56:18;;;;;;;4.15;2.40;;;18.70;99.90;;;;;;6247511;23;20011;-89
2022/07/24 06:58:43;;;;;;;4.30;2.45;;;18.70;99.90;;;;;;6244520;23;20004;-90
2022/07/24 07:01:09;;;;;;;4.07;2.60;;;18.80;99.90;;;;;;6245022;23;20061;-90
2022/07/24 07:03:35;;;;;;;4.00;2.40;;;18.90;99.90;;;;;;6245368;22;20003;-89
2022/07/24 07:06:00;;;;;;;5.72;2.38;;;19.00;99.90;;;;;;6248457;23;20008;-90
2022/07/24 07:08:27;;;;;;;9.70;2.50;;;19.00;99.90;;;;;;6247648;23;20071;-91
2022/07/24 07:10:52;;;;;;;3.05;2.30;;;19.10;99.90;;;;;;6248147;22;20011;-89
2022/07/24 07:13:18;;;;;;;3.42;2.08;;;19.20;99.90;;;;;;6248013;23;20000;-91
2022/07/24 07:15:43;;;;;;;3.28;2.20;;;19.30;99.90;;;;;;6247420;23;20054;-88
2022/07/24 07:18:09;;;;;;;2.95;2.30;;;19.10;99.90;;;;;;6246735;23;20054;-88
2022/07/24 07:20:35;;;;;;;6.13;2.28;;;19.40;99.90;;;;;;6271012;22;20020;-90
2022/07/24 07:23:01;;;;;;;4.05;2.35;;;19.50;99.90;;;;;;6269625;22;20025;-90
2022/07/24 07:25:26;;;;;;;2.70;2.20;;;19.60;99.90;;;;;;6277056;22;20321;-88
2022/07/24 07:27:52;;;;;;;3.80;2.30;;;19.60;99.90;;;;;;6250579;22;20440;-88
2022/07/24 07:30:18;;;;;;;4.25;2.50;;;19.70;99.90;;;;;;6249545;22;20333;-89
2022/07/24 07:32:44;;;;;;;2.15;1.90;;;19.70;99.90;;;;;;6277105;22;20003;-91
2022/07/24 07:35:09;;;;;;;3.90;1.95;;;19.70;99.90;;;;;;6248092;22;20082;-89
2022/07/24 07:37:35;;;;;;;3.38;1.80;;;19.90;99.90;;;;;;6276300;22;20000;-88
2022/07/24 07:40:01;;;;;;;3.33;2.03;;;20.00;99.90;;;;;;6276569;22;20026;-90
2022/07/24 07:42:27;;;;;;;1.70;1.60;;;20.10;99.90;;;;;;6277131;22;20007;-88
2022/07/24 07:44:53;;;;;;;5.07;1.70;;;20.60;99.90;;;;;;6248422;22;20018;-88
2022/07/24 07:47:18;;;;;;;2.58;1.70;;;20.30;99.90;;;;;;6274706;22;20106;-89
2022/07/24 07:49:44;;;;;;;1.73;1.60;;;20.40;99.90;;;;;;6274567;22;20052;-90
2022/07/24 07:52:10;;;;;;;2.53;2.00;;;20.50;99.90;;;;;;6248298;22;20000;-91
2022/07/24 07:54:36;;;;;;;3.03;1.90;;;20.50;99.90;;;;;;6274672;22;20007;-89
2022/07/24 07:57:02;;;;;;;1.92;1.70;;;20.70;99.90;;;;;;6274930;22;20003;-91
2022/07/24 07:59:27;;;;;;;2.30;1.70;;;20.80;99.90;;;;;;6276156;22;20000;-89
2022/07/24 08:01:53;;;;;;;1.73;1.63;;;20.90;99.90;;;;;;6275244;22;20003;-91
2022/07/24 08:04:19;;;;;;;2.28;1.65;;;21.10;99.90;;;;;;6275694;22;20003;-89
2022/07/24 08:06:44;;;;;;;2.28;1.80;;;21.10;99.90;;;;;;6248593;22;20007;-92
2022/07/24 08:09:10;;;;;;;2.47;1.70;;;21.50;99.90;;;;;;6273893;22;19995;-92
2022/07/24 08:11:36;;;;;;;2.30;1.60;;;21.40;99.90;;;;;;6247369;22;20008;-90
2022/07/24 08:14:02;;;;;;;2.92;1.60;;;21.60;99.90;;;;;;6246084;22;20012;-90
2022/07/24 08:16:27;;;;;;;4.68;1.65;;;21.60;99.90;;;;;;6274094;22;19996;-91
2022/07/24 08:18:53;;;;;;;2.70;1.83;;;21.80;99.90;;;;;;6273537;22;20428;-90
2022/07/24 08:21:19;;;;;;;1.75;1.40;;;22.10;99.90;;;;;;6246883;22;20034;-88
2022/07/24 08:23:45;;;;;;;5.10;1.55;;;22.20;99.90;;;;;;6247737;22;20030;-90
2022/07/24 08:26:12;;;;;;;2.10;1.65;;;22.30;99.90;;;;;;6275109;22;19999;-91
2022/07/24 08:28:38;;;;;;;1.40;1.30;;;22.50;99.90;;;;;;6274999;22;19996;-88
2022/07/24 08:31:04;;;;;;;1.70;1.48;;;22.70;99.90;;;;;;6247494;22;20003;-89
2022/07/24 08:33:30;;;;;;;2.95;1.40;;;22.70;99.90;;;;;;6276664;22;20010;-89
2022/07/24 08:35:56;;;;;;;2.53;1.35;;;22.80;99.90;;;;;;6275954;22;20000;-89
2022/07/24 08:38:21;;;;;;;2.58;1.50;;;22.80;99.90;;;;;;6274917;22;20207;-90
2022/07/24 08:40:47;;;;;;;2.13;1.35;;;23.40;99.90;;;;;;6274239;22;20012;-90
2022/07/24 08:43:13;;;;;;;1.98;1.38;;;23.10;99.90;;;;;;6247654;22;20003;-90
2022/07/24 08:45:41;;;;;;;1.77;1.20;;;23.20;99.90;;;;;;6274054;22;20034;-88
2022/07/24 08:48:10;;;;;;;4.30;1.50;;;23.30;99.90;;;;;;6275180;22;19996;-87
2022/07/24 08:50:39;;;;;;;2.58;1.10;;;23.40;99.90;;;;;;6273953;22;20345;-89
2022/07/24 08:53:05;;;;;;;3.72;1.20;;;23.50;99.90;;;;;;6273547;22;20003;-89
2022/07/24 08:55:32;;;;;;;1.38;1.20;;;23.60;99.90;;;;;;6275438;22;20034;-90
2022/07/24 08:58:00;;;;;;;3.47;1.30;;;23.60;99.90;;;;;;6248168;22;20036;-88
2022/07/24 09:00:27;;;;;;;1.75;1.30;;;23.70;99.90;;;;;;6275118;22;20007;-89
2022/07/24 09:02:53;;;;;;;5.28;1.40;;;23.90;99.90;;;;;;6250020;22;20079;-89
2022/07/24 09:05:19;;;;;;;3.88;1.50;;;23.90;99.90;;;;;;6276726;22;20062;-90
2022/07/24 09:07:44;;;;;;;3.55;1.50;;;24.00;99.90;;;;;;6277523;22;20060;-91
2022/07/24 09:10:13;;;;;;;3.40;1.30;;;24.20;99.90;;;;;;6249121;22;20006;-91
2022/07/24 09:12:42;;;;;;;2.15;1.20;;;24.30;99.90;;;;;;6249017;22;20003;-89
2022/07/24 09:15:17;;;;;;;2.45;1.00;;;24.50;99.90;;;;;;6248372;22;20411;-90
2022/07/24 09:17:51;;;;;;;1.90;1.35;;;24.50;99.90;;;;;;6249904;22;20015;-90
2022/07/24 09:20:17;;;;;;;2.13;1.20;;;24.80;99.90;;;;;;6249372;22;20086;-90
2022/07/24 09:22:44;;;;;;;1.67;1.50;;;24.70;99.90;;;;;;6276364;22;20452;-89
2022/07/24 09:25:23;;;;;;;3.33;1.40;;;24.70;99.90;;;;;;6248128;22;20000;-89
2022/07/24 09:27:52;;;;;;;1.30;1.30;;;24.80;99.90;;;;;;6275893;22;20344;-89
2022/07/24 09:30:42;;;;;;;2.63;1.17;;;25.10;99.90;;;;;;6277268;22;20004;-90
2022/07/24 09:33:21;;;;;;;1.30;1.20;;;25.10;99.90;;;;;;6276435;22;20000;-88
2022/07/24 09:35:52;;;;;;;5.07;1.40;;;25.30;99.90;;;;;;6249211;22;20003;-92
2022/07/24 09:38:23;;;;;;;1.48;1.20;;;25.40;99.90;;;;;;6276212;22;20006;-91
2022/07/24 09:40:54;;;;;;;8.75;4.93;;;25.50;99.90;;;;;;6276785;22;20008;-90
2022/07/24 09:43:24;;;;;;;7.63;5.65;;;25.50;99.90;;;;;;6276129;22;19999;-91
2022/07/24 09:46:00;;;;;;;17.35;9.80;;;25.60;99.90;;;;;;6277007;22;20004;-91
2022/07/24 09:48:38;;;;;;;4.78;2.50;;;25.60;99.90;;;;;;6249691;22;20008;-91
2022/07/24 09:51:12;;;;;;;8.00;2.88;;;25.70;99.90;;;;;;6250049;22;20322;-90
2022/07/24 09:53:38;;;;;;;4.57;2.10;;;25.80;99.90;;;;;;6276441;22;20069;-90
2022/07/24 09:56:16;;;;;;;14.07;7.55;;;25.90;99.90;;;;;;6251328;22;20008;-91
2022/07/24 09:58:44;;;;;;;4.05;3.33;;;25.80;99.90;;;;;;6274161;22;20003;-89
2022/07/24 10:01:11;;;;;;;14.57;8.75;;;26.00;99.90;;;;;;6275200;22;20437;-93
2022/07/24 10:03:39;;;;;;;7.43;5.10;;;26.10;99.90;;;;;;6248083;22;20137;-86
2022/07/24 10:06:10;;;;;;;11.80;5.80;;;26.20;99.90;;;;;;6275743;22;20559;-90
2022/07/24 10:08:38;;;;;;;4.97;1.80;;;26.20;99.90;;;;;;6275822;22;19995;-88
2022/07/24 10:11:04;;;;;;;3.92;1.83;;;26.00;99.90;;;;;;6275958;22;20000;-87
2022/07/24 10:13:30;;;;;;;6.93;3.45;;;26.40;99.90;;;;;;6275903;22;20050;-91
2022/07/24 10:16:31;;;;;;;2.72;1.95;;;26.50;99.90;;;;;;6276070;22;19999;-91
2022/07/24 10:19:03;;;;;;;2.13;1.60;;;26.50;99.90;;;;;;6277040;22;20375;-90
2022/07/24 10:21:43;;;;;;;1.50;1.30;;;26.60;99.90;;;;;;6248582;22;20030;-92
2022/07/24 10:24:12;;;;;;;3.05;2.05;;;26.60;99.90;;;;;;6276383;22;20023;-91
2022/07/24 10:26:41;;;;;;;2.13;1.42;;;26.70;99.90;;;;;;6276792;22;20006;-92
2022/07/24 10:29:10;;;;;;;3.90;1.50;;;26.80;99.90;;;;;;6276023;22;20081;-92
2022/07/24 10:31:48;;;;;;;1.88;1.60;;;26.80;99.90;;;;;;6275324;22;20337;-91
2022/07/24 10:34:17;;;;;;;1.98;1.30;;;26.80;99.90;;;;;;6274514;22;20000;-91
2022/07/24 10:36:57;;;;;;;2.85;1.50;;;26.90;99.90;;;;;;6247717;22;20006;-90
2022/07/24 10:39:32;;;;;;;2.50;1.40;;;27.00;99.90;;;;;;6248103;22;20038;-89
2022/07/24 10:42:05;;;;;;;1.20;1.10;;;27.10;99.90;;;;;;6276146;22;20073;-90
2022/07/24 10:44:31;;;;;;;3.10;1.40;;;27.20;99.90;;;;;;6249238;22;20007;-91
2022/07/24 10:46:57;;;;;;;2.15;1.40;;;27.40;99.90;;;;;;6276561;22;20000;-89
2022/07/24 10:49:42;;;;;;;3.25;1.60;;;27.30;99.90;;;;;;6277661;22;20004;-89
2022/07/24 10:52:22;;;;;;;1.50;1.40;;;27.40;99.90;;;;;;6251198;22;20336;-90
2022/07/24 10:55:09;;;;;;;2.53;1.30;;;27.40;99.90;;;;;;6251437;22;20447;-91
2022/07/24 10:57:57;;;;;;;1.83;1.30;;;27.40;99.90;;;;;;6278766;22;20002;-91
2022/07/24 11:00:31;;;;;;;5.65;1.50;;;27.40;99.90;;;;;;6249491;22;20035;-89
2022/07/24 11:03:00;;;;;;;3.45;1.25;;;27.50;99.90;;;;;;6277492;22;20117;-91
2022/07/24 11:05:36;;;;;;;5.15;1.45;;;27.50;99.90;;;;;;6277667;22;19996;-91
2022/07/24 11:08:20;;;;;;;1.50;1.40;;;27.50;99.90;;;;;;6279240;22;20054;-89
2022/07/24 11:10:47;;;;;;;2.92;1.40;;;27.70;99.90;;;;;;6278704;22;20444;-91
2022/07/24 11:13:32;;;;;;;2.17;1.65;;;27.90;99.90;;;;;;6250491;22;20008;-89
2022/07/24 11:16:16;;;;;;;2.58;1.40;;;27.80;99.90;;;;;;6251559;22;20011;-91
2022/07/24 11:19:02;;;;;;;3.13;1.60;;;27.90;99.90;;;;;;6278675;22;20003;-90
2022/07/24 11:21:36;;;;;;;2.13;1.50;;;28.10;99.90;;;;;;6277836;22;21805;-91
2022/07/24 11:24:22;;;;;;;2.92;1.52;;;28.20;99.90;;;;;;6278058;22;20027;-92
2022/07/24 11:26:53;;;;;;;3.25;1.50;;;28.10;99.90;;;;;;6278311;22;20000;-92
2022/07/24 11:29:29;;;;;;;4.38;2.40;;;28.20;99.90;;;;;;6250194;22;20444;-90
2022/07/24 11:32:10;;;;;;;2.83;1.52;;;28.40;99.90;;;;;;6277295;22;20000;-92
2022/07/24 11:34:38;;;;;;;2.55;1.52;;;28.40;99.90;;;;;;6251100;22;19999;-89
2022/07/24 11:37:09;;;;;;;3.22;1.67;;;28.40;99.90;;;;;;6251369;22;20011;-91
2022/07/24 11:39:37;;;;;;;1.52;1.42;;;28.40;99.90;;;;;;6278754;22;19996;-91
2022/07/24 11:42:05;;;;;;;3.67;1.60;;;28.50;99.90;;;;;;6275782;22;20034;-89
2022/07/24 11:44:34;;;;;;;1.60;1.50;;;28.30;99.90;;;;;;6276135;22;20433;-89
2022/07/24 11:47:08;;;;;;;4.72;1.45;;;28.50;99.90;;;;;;6275080;22;20433;-91
2022/07/24 11:49:39;;;;;;;2.05;1.58;;;27.60;99.90;;;;;;6275597;22;20000;-88
2022/07/24 11:52:05;;;;;;;2.00;1.50;;;28.50;99.90;;;;;;6277099;22;20026;-91
2022/07/24 11:54:31;;;;;;;3.00;1.90;;;28.60;99.90;;;;;;6278387;22;19996;-91
2022/07/24 11:56:57;;;;;;;2.53;1.60;;;28.80;99.90;;;;;;6250035;22;20035;-93
2022/07/24 11:59:29;;;;;;;4.63;2.92;;;28.70;99.90;;;;;;6249642;22;20003;-89
2022/07/24 12:02:02;;;;;;;4.63;1.70;;;28.70;99.90;;;;;;6277297;22;20377;-91
2022/07/24 12:04:28;;;;;;;5.88;3.13;;;28.60;99.90;;;;;;6277132;22;19996;-93
2022/07/24 12:06:54;;;;;;;15.43;12.00;;;28.70;99.90;;;;;;6248908;22;20026;-93
2022/07/24 12:09:20;;;;;;;4.18;3.42;;;28.70;99.90;;;;;;6249218;22;20019;-89
2022/07/24 12:11:45;;;;;;;4.57;3.38;;;29.00;99.90;;;;;;6274989;22;20020;-92
2022/07/24 12:14:17;;;;;;;4.22;3.83;;;29.00;99.90;;;;;;6275799;22;20455;-92
2022/07/24 12:16:44;;;;;;;2.90;2.60;;;29.00;99.90;;;;;;6250086;22;20004;-92
2022/07/24 12:19:14;;;;;;;;;;;29.00;99.90;;;;;;6250347;22;20000;-89
2022/07/24 12:21:41;;;;;;;3.50;2.10;;;29.00;99.90;;;;;;6277198;22;20227;-93
2022/07/24 12:24:07;;;;;;;1.50;1.40;;;29.20;99.90;;;;;;6276331;22;20019;-94
2022/07/24 12:26:33;;;;;;;2.72;1.63;;;29.10;99.90;;;;;;6247667;22;20458;-91
2022/07/24 12:29:12;;;;;;;5.78;1.60;;;28.90;99.90;;;;;;6277768;22;20071;-89
2022/07/24 12:31:37;;;;;;;1.83;1.42;;;28.90;99.90;;;;;;6276155;22;20003;-89
2022/07/24 12:34:07;;;;;;;2.28;1.60;;;29.00;99.90;;;;;;6275903;22;20025;-90
2022/07/24 12:36:33;;;;;;;2.55;1.50;;;29.10;99.90;;;;;;6276267;22;19996;-87
2022/07/24 12:38:59;;;;;;;1.83;1.33;;;29.30;99.90;;;;;;6275217;22;20008;-92
2022/07/24 12:41:26;;;;;;;2.40;1.52;;;29.20;99.90;;;;;;6248162;22;20019;-90
2022/07/24 12:43:57;;;;;;;1.50;1.40;;;29.20;99.90;;;;;;6248024;22;20004;-92
2022/07/24 12:46:28;;;;;;;2.47;1.60;;;29.20;99.90;;;;;;6274125;22;20003;-92
2022/07/24 12:49:04;;;;;;;1.35;1.25;;;29.40;99.90;;;;;;6273023;22;20000;-90
2022/07/24 12:51:59;;;;;;;1.42;1.30;;;29.60;99.90;;;;;;6273374;22;20000;-90